createdAt,value
2018-12-05T00:00:00.538Z,1010.01
2018-12-05T00:01:00.557Z,1009.98
2018-12-05T00:02:00.568Z,1010.02
2018-12-05T00:03:00.586Z,1009.96
2018-12-05T00:04:00.603Z,1009.97
2018-12-05T00:05:00.618Z,1009.93
2018-12-05T00:06:00.637Z,1009.94
2018-12-05T00:07:00.655Z,1009.96
2018-12-05T00:08:00.673Z,1009.99
2018-12-05T00:09:00.689Z,1010
2018-12-05T00:10:00.711Z,1009.99
2018-12-05T00:11:00.725Z,1009.98
2018-12-05T00:12:00.743Z,1009.95
2018-12-05T00:13:00.759Z,1009.98
2018-12-05T00:14:00.780Z,1010.01
2018-12-05T00:15:00.794Z,1009.98
2018-12-05T00:16:00.811Z,1009.99
2018-12-05T00:17:00.826Z,1010
2018-12-05T00:18:00.845Z,1009.99
2018-12-05T00:19:00.863Z,1009.94
2018-12-05T00:20:00.879Z,1009.96
2018-12-05T00:21:00.897Z,1009.92
2018-12-05T00:22:00.914Z,1009.94
2018-12-05T00:23:00.938Z,1009.93
2018-12-05T00:24:00.952Z,1009.86
2018-12-05T00:25:00.967Z,1009.85
2018-12-05T00:26:00.984Z,1009.86
2018-12-05T00:27:00.998Z,1009.84
2018-12-05T00:28:01.018Z,1009.86
2018-12-05T00:29:01.035Z,1009.84
2018-12-05T00:30:01.052Z,1009.86
2018-12-05T00:31:01.073Z,1009.88
2018-12-05T00:32:01.086Z,1009.94
2018-12-05T00:33:01.103Z,1009.88
2018-12-05T00:34:01.124Z,1009.92
2018-12-05T00:35:01.141Z,1009.92
2018-12-05T00:36:01.159Z,1009.91
2018-12-05T00:37:01.174Z,1009.89
2018-12-05T00:38:01.189Z,1009.89
2018-12-05T00:39:01.206Z,1009.9
2018-12-05T00:40:01.225Z,1009.84
2018-12-05T00:41:01.246Z,1009.85
2018-12-05T00:42:01.262Z,1009.86
2018-12-05T00:43:01.276Z,1009.81
2018-12-05T00:44:01.297Z,1009.8
2018-12-05T00:45:01.313Z,1009.76
2018-12-05T00:46:01.331Z,1009.76
2018-12-05T00:47:01.349Z,1009.73
2018-12-05T00:48:01.361Z,1009.73
2018-12-05T00:49:01.382Z,1009.75
2018-12-05T00:50:01.400Z,1009.76
2018-12-05T00:51:01.414Z,1009.7
2018-12-05T00:52:01.435Z,1009.72
2018-12-05T00:53:01.447Z,1009.63
2018-12-05T00:54:01.465Z,1009.67
2018-12-05T00:55:01.484Z,1009.62
2018-12-05T00:56:01.505Z,1009.66
2018-12-05T00:57:01.517Z,1009.67
2018-12-05T00:58:01.539Z,1009.69
2018-12-05T00:59:01.554Z,1009.69
2018-12-05T01:00:01.569Z,1009.71
2018-12-05T01:01:01.589Z,1009.68
2018-12-05T01:02:01.603Z,1009.7
2018-12-05T01:03:01.621Z,1009.65
2018-12-05T01:04:01.637Z,1009.68
2018-12-05T01:05:01.663Z,1009.68
2018-12-05T01:06:01.672Z,1009.69
2018-12-05T01:07:01.689Z,1009.66
2018-12-05T01:08:01.708Z,1009.65
2018-12-05T01:09:01.724Z,1009.64
2018-12-05T01:10:01.743Z,1009.64
2018-12-05T01:11:01.764Z,1009.61
2018-12-05T01:12:01.783Z,1009.67
2018-12-05T01:13:01.792Z,1009.62
2018-12-05T01:14:01.811Z,1009.64
2018-12-05T01:15:01.828Z,1009.64
2018-12-05T01:16:01.845Z,1009.68
2018-12-05T01:17:01.866Z,1009.69
2018-12-05T01:18:01.884Z,1009.7
2018-12-05T01:19:01.898Z,1009.66
2018-12-05T01:20:01.921Z,1009.68
2018-12-05T01:21:01.933Z,1009.71
2018-12-05T01:22:01.949Z,1009.7
2018-12-05T01:23:01.970Z,1009.74
2018-12-05T01:24:01.989Z,1009.76
2018-12-05T01:25:02.003Z,1009.74
2018-12-05T01:26:02.018Z,1009.78
2018-12-05T01:27:02.041Z,1009.77
2018-12-05T01:28:02.054Z,1009.76
2018-12-05T01:29:02.073Z,1009.82
2018-12-05T01:30:02.091Z,1009.81
2018-12-05T01:31:02.106Z,1009.83
2018-12-05T01:32:02.168Z,1009.82
2018-12-05T01:33:02.140Z,1009.82
2018-12-05T01:34:02.158Z,1009.82
2018-12-05T01:35:02.175Z,1009.81
2018-12-05T01:36:02.191Z,1009.77
2018-12-05T01:37:02.209Z,1009.75
2018-12-05T01:38:02.227Z,1009.74
2018-12-05T01:39:02.243Z,1009.71
2018-12-05T01:40:02.261Z,1009.7
2018-12-05T01:41:02.284Z,1009.7
2018-12-05T01:42:02.298Z,1009.65
2018-12-05T01:43:02.317Z,1009.65
2018-12-05T01:44:02.329Z,1009.66
2018-12-05T01:45:02.348Z,1009.61
2018-12-05T01:46:02.366Z,1009.65
2018-12-05T01:47:02.383Z,1009.65
2018-12-05T01:48:02.398Z,1009.65
2018-12-05T01:49:02.415Z,1009.65
2018-12-05T01:50:02.437Z,1009.63
2018-12-05T01:51:02.451Z,1009.64
2018-12-05T01:52:02.471Z,1009.66
2018-12-05T01:53:02.489Z,1009.7
2018-12-05T01:54:02.502Z,1009.68
2018-12-05T01:55:02.523Z,1009.72
2018-12-05T01:56:02.541Z,1009.7
2018-12-05T01:57:02.554Z,1009.68
2018-12-05T01:58:02.572Z,1009.67
2018-12-05T01:59:02.588Z,1009.65
2018-12-05T02:00:02.608Z,1009.68
2018-12-05T02:01:02.624Z,1009.66
2018-12-05T02:02:02.639Z,1009.64
2018-12-05T02:03:02.659Z,1009.65
2018-12-05T02:04:02.674Z,1009.65
2018-12-05T02:05:02.693Z,1009.63
2018-12-05T02:06:02.710Z,1009.61
2018-12-05T02:07:02.730Z,1009.58
2018-12-05T02:08:02.744Z,1009.64
2018-12-05T02:09:02.762Z,1009.62
2018-12-05T02:10:02.782Z,1009.66
2018-12-05T02:11:02.798Z,1009.7
2018-12-05T02:12:02.813Z,1009.73
2018-12-05T02:13:02.830Z,1009.72
2018-12-05T02:14:02.846Z,1009.69
2018-12-05T02:15:02.865Z,1009.73
2018-12-05T02:16:02.889Z,1009.74
2018-12-05T02:17:02.898Z,1009.76
2018-12-05T02:18:02.915Z,1009.82
2018-12-05T02:19:02.932Z,1009.79
2018-12-05T02:20:02.952Z,1009.75
2018-12-05T02:21:02.967Z,1009.72
2018-12-05T02:22:02.989Z,1009.71
2018-12-05T02:23:03.002Z,1009.7
2018-12-05T02:24:03.018Z,1009.66
2018-12-05T02:25:03.037Z,1009.66
2018-12-05T02:26:03.054Z,1009.68
2018-12-05T02:27:03.070Z,1009.7
2018-12-05T02:28:03.086Z,1009.68
2018-12-05T02:29:03.105Z,1009.66
2018-12-05T02:30:03.129Z,1009.69
2018-12-05T02:31:03.139Z,1009.65
2018-12-05T02:32:03.160Z,1009.69
2018-12-05T02:33:03.176Z,1009.65
2018-12-05T02:34:03.192Z,1009.67
2018-12-05T02:35:03.212Z,1009.69
2018-12-05T02:36:03.226Z,1009.71
2018-12-05T02:37:03.243Z,1009.72
2018-12-05T02:38:03.260Z,1009.69
2018-12-05T02:39:03.284Z,1009.71
2018-12-05T02:40:03.297Z,1009.71
2018-12-05T02:41:03.312Z,1009.67
2018-12-05T02:42:03.332Z,1009.68
2018-12-05T02:43:03.345Z,1009.66
2018-12-05T02:44:03.369Z,1009.67
2018-12-05T02:45:03.383Z,1009.71
2018-12-05T02:46:03.398Z,1009.7
2018-12-05T02:47:03.415Z,1009.69
2018-12-05T02:48:03.433Z,1009.7
2018-12-05T02:49:03.454Z,1009.73
2018-12-05T02:50:03.466Z,1009.73
2018-12-05T02:51:03.484Z,1009.73
2018-12-05T02:52:03.502Z,1009.72
2018-12-05T02:53:03.517Z,1009.75
2018-12-05T02:54:03.538Z,1009.73
2018-12-05T02:55:03.555Z,1009.71
2018-12-05T02:56:03.569Z,1009.73
2018-12-05T02:57:03.597Z,1009.73
2018-12-05T02:58:03.607Z,1009.76
2018-12-05T02:59:03.622Z,1009.72
2018-12-05T03:00:03.638Z,1009.69
2018-12-05T03:01:03.660Z,1009.69
2018-12-05T03:02:03.672Z,1009.71
2018-12-05T03:03:03.710Z,1009.71
2018-12-05T03:04:03.707Z,1009.67
2018-12-05T03:05:03.729Z,1009.68
2018-12-05T03:06:03.742Z,1009.63
2018-12-05T03:07:03.761Z,1009.67
2018-12-05T03:08:03.776Z,1009.65
2018-12-05T03:09:03.796Z,1009.63
2018-12-05T03:10:03.811Z,1009.61
2018-12-05T03:11:03.830Z,1009.61
2018-12-05T03:12:03.843Z,1009.56
2018-12-05T03:13:03.864Z,1009.59
2018-12-05T03:14:03.879Z,1009.6
2018-12-05T03:15:03.896Z,1009.6
2018-12-05T03:16:03.912Z,1009.63
2018-12-05T03:17:03.931Z,1009.63
2018-12-05T03:18:03.952Z,1009.61
2018-12-05T03:19:03.968Z,1009.67
2018-12-05T03:20:05.341Z,1009.65
2018-12-05T03:21:03.999Z,1009.68
2018-12-05T03:22:04.016Z,1009.63
2018-12-05T03:23:04.035Z,1009.6
2018-12-05T03:24:04.051Z,1009.64
2018-12-05T03:25:04.067Z,1009.6
2018-12-05T03:26:04.085Z,1009.58
2018-12-05T03:27:04.102Z,1009.58
2018-12-05T03:28:04.119Z,1009.6
2018-12-05T03:29:04.137Z,1009.58
2018-12-05T03:30:04.155Z,1009.59
2018-12-05T03:31:04.174Z,1009.59
2018-12-05T03:32:04.190Z,1009.54
2018-12-05T03:33:04.210Z,1009.56
2018-12-05T03:34:04.220Z,1009.56
2018-12-05T03:35:04.238Z,1009.57
2018-12-05T03:36:04.258Z,1009.57
2018-12-05T03:37:04.284Z,1009.59
2018-12-05T03:38:04.289Z,1009.59
2018-12-05T03:39:04.308Z,1009.55
2018-12-05T03:40:04.324Z,1009.57
2018-12-05T03:41:04.339Z,1009.56
2018-12-05T03:42:04.359Z,1009.58
2018-12-05T03:43:04.376Z,1009.54
2018-12-05T03:44:04.405Z,1009.55
2018-12-05T03:45:04.418Z,1009.52
2018-12-05T03:46:04.432Z,1009.48
2018-12-05T03:47:04.444Z,1009.52
2018-12-05T03:48:04.459Z,1009.5
2018-12-05T03:49:04.478Z,1009.55
2018-12-05T03:50:04.499Z,1009.55
2018-12-05T03:51:04.516Z,1009.58
2018-12-05T03:52:04.530Z,1009.56
2018-12-05T03:53:04.545Z,1009.57
2018-12-05T03:54:04.562Z,1009.56
2018-12-05T03:55:04.581Z,1009.57
2018-12-05T03:56:04.598Z,1009.6
2018-12-05T03:57:04.616Z,1009.61
2018-12-05T03:58:04.637Z,1009.59
2018-12-05T03:59:04.653Z,1009.59
2018-12-05T04:00:04.665Z,1009.64
2018-12-05T04:01:04.687Z,1009.56
2018-12-05T04:02:04.700Z,1009.58
2018-12-05T04:03:04.717Z,1009.58
2018-12-05T04:04:04.735Z,1009.6
2018-12-05T04:05:04.752Z,1009.63
2018-12-05T04:06:04.769Z,1009.6
2018-12-05T04:07:04.792Z,1009.61
2018-12-05T04:08:04.806Z,1009.6
2018-12-05T04:09:04.821Z,1009.6
2018-12-05T04:10:04.842Z,1009.58
2018-12-05T04:11:04.854Z,1009.57
2018-12-05T04:12:04.881Z,1009.58
2018-12-05T04:13:04.892Z,1009.6
2018-12-05T04:14:04.904Z,1009.58
2018-12-05T04:15:04.927Z,1009.58
2018-12-05T04:16:04.940Z,1009.59
2018-12-05T04:17:04.959Z,1009.58
2018-12-05T04:18:04.975Z,1009.58
2018-12-05T04:19:04.996Z,1009.56
2018-12-05T04:20:05.019Z,1009.59
2018-12-05T04:21:05.026Z,1009.59
2018-12-05T04:22:05.072Z,1009.6
2018-12-05T04:23:05.066Z,1009.61
2018-12-05T04:24:05.078Z,1009.65
2018-12-05T04:25:05.098Z,1009.65
2018-12-05T04:26:05.112Z,1009.6
2018-12-05T04:27:05.129Z,1009.65
2018-12-05T04:28:05.149Z,1009.66
2018-12-05T04:29:05.163Z,1009.67
2018-12-05T04:30:05.180Z,1009.67
2018-12-05T04:31:05.199Z,1009.66
2018-12-05T04:32:05.215Z,1009.65
2018-12-05T04:33:05.233Z,1009.67
2018-12-05T04:34:05.250Z,1009.67
2018-12-05T04:35:05.270Z,1009.67
2018-12-05T04:36:05.283Z,1009.66
2018-12-05T04:37:05.304Z,1009.69
2018-12-05T04:38:05.318Z,1009.67
2018-12-05T04:39:05.339Z,1009.65
2018-12-05T04:40:05.360Z,1009.63
2018-12-05T04:41:05.370Z,1009.65
2018-12-05T04:42:05.386Z,1009.59
2018-12-05T04:43:05.402Z,1009.62
2018-12-05T04:44:05.426Z,1009.58
2018-12-05T04:45:05.443Z,1009.6
2018-12-05T04:46:05.459Z,1009.55
2018-12-05T04:47:05.470Z,1009.6
2018-12-05T04:48:05.492Z,1009.6
2018-12-05T04:49:05.505Z,1009.53
2018-12-05T04:50:05.533Z,1009.53
2018-12-05T04:51:05.558Z,1009.51
2018-12-05T04:52:05.558Z,1009.46
2018-12-05T04:53:05.573Z,1009.47
2018-12-05T04:54:05.594Z,1009.44
2018-12-05T04:55:05.609Z,1009.48
2018-12-05T04:56:05.631Z,1009.47
2018-12-05T04:57:05.643Z,1009.43
2018-12-05T04:58:05.663Z,1009.45
2018-12-05T04:59:05.680Z,1009.45
2018-12-05T05:00:05.693Z,1009.45
2018-12-05T05:01:05.708Z,1009.45
2018-12-05T05:02:05.727Z,1009.48
2018-12-05T05:03:05.745Z,1009.46
2018-12-05T05:04:05.762Z,1009.49
2018-12-05T05:05:05.778Z,1009.52
2018-12-05T05:06:05.794Z,1009.52
2018-12-05T05:07:07.034Z,1009.5
2018-12-05T05:08:05.830Z,1009.51
2018-12-05T05:09:05.846Z,1009.47
2018-12-05T05:10:05.863Z,1009.47
2018-12-05T05:11:05.883Z,1009.48
2018-12-05T05:12:05.897Z,1009.45
2018-12-05T05:13:05.914Z,1009.44
2018-12-05T05:14:05.930Z,1009.46
2018-12-05T05:15:05.949Z,1009.49
2018-12-05T05:16:05.968Z,1009.49
2018-12-05T05:17:05.982Z,1009.5
2018-12-05T05:18:06.001Z,1009.47
2018-12-05T05:19:06.016Z,1009.46
2018-12-05T05:20:06.083Z,1009.48
2018-12-05T05:21:06.050Z,1009.44
2018-12-05T05:22:06.072Z,1009.5
2018-12-05T05:23:06.082Z,1009.49
2018-12-05T05:24:06.100Z,1009.49
2018-12-05T05:25:06.128Z,1009.52
2018-12-05T05:26:06.139Z,1009.46
2018-12-05T05:27:06.150Z,1009.45
2018-12-05T05:28:06.168Z,1009.44
2018-12-05T05:29:06.189Z,1009.43
2018-12-05T05:30:06.204Z,1009.43
2018-12-05T05:31:06.219Z,1009.42
2018-12-05T05:32:06.240Z,1009.41
2018-12-05T05:33:06.257Z,1009.39
2018-12-05T05:34:06.270Z,1009.46
2018-12-05T05:35:06.290Z,1009.44
2018-12-05T05:36:06.308Z,1009.45
2018-12-05T05:37:06.326Z,1009.43
2018-12-05T05:38:06.342Z,1009.39
2018-12-05T05:39:06.355Z,1009.38
2018-12-05T05:40:06.373Z,1009.4
2018-12-05T05:41:06.389Z,1009.35
2018-12-05T05:42:06.405Z,1009.36
2018-12-05T05:43:06.424Z,1009.36
2018-12-05T05:44:06.443Z,1009.35
2018-12-05T05:45:06.456Z,1009.34
2018-12-05T05:46:06.474Z,1009.34
2018-12-05T05:47:06.491Z,1009.32
2018-12-05T05:48:06.513Z,1009.35
2018-12-05T05:49:06.528Z,1009.34
2018-12-05T05:50:06.558Z,1009.33
2018-12-05T05:51:06.559Z,1009.29
2018-12-05T05:52:06.580Z,1009.3
2018-12-05T05:53:06.595Z,1009.28
2018-12-05T05:54:06.615Z,1009.3
2018-12-05T05:55:06.630Z,1009.27
2018-12-05T05:56:06.646Z,1009.29
2018-12-05T05:57:06.661Z,1009.24
2018-12-05T05:58:06.682Z,1009.25
2018-12-05T05:59:06.700Z,1009.31
2018-12-05T06:00:06.716Z,1009.28
2018-12-05T06:01:06.729Z,1009.27
2018-12-05T06:02:06.746Z,1009.29
2018-12-05T06:03:06.764Z,1009.3
2018-12-05T06:04:06.781Z,1009.28
2018-12-05T06:05:06.799Z,1009.26
2018-12-05T06:06:06.821Z,1009.3
2018-12-05T06:07:06.831Z,1009.3
2018-12-05T06:08:06.851Z,1009.27
2018-12-05T06:09:06.866Z,1009.31
2018-12-05T06:10:06.894Z,1009.27
2018-12-05T06:11:06.899Z,1009.3
2018-12-05T06:12:06.916Z,1009.35
2018-12-05T06:13:06.933Z,1009.34
2018-12-05T06:14:06.949Z,1009.33
2018-12-05T06:15:06.968Z,1009.36
2018-12-05T06:16:06.984Z,1009.32
2018-12-05T06:17:07.002Z,1009.34
2018-12-05T06:18:07.019Z,1009.37
2018-12-05T06:19:07.038Z,1009.32
2018-12-05T06:20:07.053Z,1009.35
2018-12-05T06:21:07.069Z,1009.37
2018-12-05T06:22:07.091Z,1009.35
2018-12-05T06:23:07.103Z,1009.32
2018-12-05T06:24:07.124Z,1009.36
2018-12-05T06:25:07.139Z,1009.42
2018-12-05T06:26:07.157Z,1009.33
2018-12-05T06:27:07.170Z,1009.37
2018-12-05T06:28:07.187Z,1009.37
2018-12-05T06:29:07.203Z,1009.4
2018-12-05T06:30:07.221Z,1009.39
2018-12-05T06:31:07.238Z,1009.42
2018-12-05T06:32:07.259Z,1009.42
2018-12-05T06:33:07.270Z,1009.38
2018-12-05T06:34:07.289Z,1009.35
2018-12-05T06:35:07.306Z,1009.33
2018-12-05T06:36:07.322Z,1009.33
2018-12-05T06:37:07.340Z,1009.32
2018-12-05T06:38:07.354Z,1009.3
2018-12-05T06:39:07.378Z,1009.36
2018-12-05T06:40:07.391Z,1009.37
2018-12-05T06:41:07.406Z,1009.41
2018-12-05T06:42:07.423Z,1009.39
2018-12-05T06:43:07.442Z,1009.41
2018-12-05T06:44:07.458Z,1009.46
2018-12-05T06:45:07.474Z,1009.46
2018-12-05T06:46:07.491Z,1009.47
2018-12-05T06:47:07.508Z,1009.49
2018-12-05T06:48:07.525Z,1009.5
2018-12-05T06:49:07.546Z,1009.54
2018-12-05T06:50:07.559Z,1009.51
2018-12-05T06:51:07.583Z,1009.54
2018-12-05T06:52:07.597Z,1009.52
2018-12-05T06:53:07.611Z,1009.57
2018-12-05T06:54:07.632Z,1009.52
2018-12-05T06:55:07.645Z,1009.56
2018-12-05T06:56:07.659Z,1009.55
2018-12-05T06:57:07.679Z,1009.51
2018-12-05T06:58:07.694Z,1009.51
2018-12-05T06:59:07.716Z,1009.5
2018-12-05T07:00:08.202Z,1009.51
2018-12-05T07:01:07.750Z,1009.47
2018-12-05T07:02:07.761Z,1009.45
2018-12-05T07:03:07.778Z,1009.49
2018-12-05T07:04:07.796Z,1009.49
2018-12-05T07:05:07.818Z,1009.54
2018-12-05T07:06:07.829Z,1009.52
2018-12-05T07:07:07.851Z,1009.59
2018-12-05T07:08:07.865Z,1009.57
2018-12-05T07:09:07.880Z,1009.54
2018-12-05T07:10:07.898Z,1009.54
2018-12-05T07:11:07.917Z,1009.56
2018-12-05T07:12:07.931Z,1009.57
2018-12-05T07:13:07.948Z,1009.55
2018-12-05T07:14:07.966Z,1009.52
2018-12-05T07:15:07.983Z,1009.55
2018-12-05T07:16:08.003Z,1009.58
2018-12-05T07:17:08.020Z,1009.59
2018-12-05T07:18:08.037Z,1009.58
2018-12-05T07:19:08.049Z,1009.64
2018-12-05T07:20:08.066Z,1009.61
2018-12-05T07:21:08.086Z,1009.63
2018-12-05T07:22:08.105Z,1009.62
2018-12-05T07:23:08.116Z,1009.64
2018-12-05T07:24:08.990Z,1009.65
2018-12-05T07:25:08.149Z,1009.64
2018-12-05T07:26:08.167Z,1009.61
2018-12-05T07:27:08.184Z,1009.62
2018-12-05T07:28:08.206Z,1009.62
2018-12-05T07:29:08.223Z,1009.62
2018-12-05T07:30:08.236Z,1009.6
2018-12-05T07:31:08.253Z,1009.59
2018-12-05T07:32:08.271Z,1009.56
2018-12-05T07:33:08.286Z,1009.53
2018-12-05T07:34:08.304Z,1009.51
2018-12-05T07:35:08.322Z,1009.52
2018-12-05T07:36:08.337Z,1009.51
2018-12-05T07:37:08.353Z,1009.56
2018-12-05T07:38:08.373Z,1009.54
2018-12-05T07:39:08.386Z,1009.55
2018-12-05T07:40:08.405Z,1009.53
2018-12-05T07:41:08.425Z,1009.55
2018-12-05T07:42:08.440Z,1009.52
2018-12-05T07:43:08.454Z,1009.5
2018-12-05T07:44:08.475Z,1009.53
2018-12-05T07:45:08.487Z,1009.52
2018-12-05T07:46:08.505Z,1009.53
2018-12-05T07:47:08.526Z,1009.48
2018-12-05T07:48:08.539Z,1009.51
2018-12-05T07:49:08.558Z,1009.49
2018-12-05T07:50:08.574Z,1009.5
2018-12-05T07:51:08.589Z,1009.49
2018-12-05T07:52:08.606Z,1009.5
2018-12-05T07:53:08.626Z,1009.51
2018-12-05T07:54:08.639Z,1009.5
2018-12-05T07:55:08.656Z,1009.47
2018-12-05T07:56:08.676Z,1009.49
2018-12-05T07:57:08.694Z,1009.44
2018-12-05T07:58:08.710Z,1009.47
2018-12-05T07:59:08.723Z,1009.49
2018-12-05T08:00:08.740Z,1009.51
2018-12-05T08:01:08.757Z,1009.49
2018-12-05T08:02:08.777Z,1009.5
2018-12-05T08:03:08.789Z,1009.48
2018-12-05T08:04:08.807Z,1009.5
2018-12-05T08:05:08.824Z,1009.48
2018-12-05T08:06:08.845Z,1009.44
2018-12-05T08:07:08.861Z,1009.45
2018-12-05T08:08:08.874Z,1009.43
2018-12-05T08:09:08.896Z,1009.41
2018-12-05T08:10:08.907Z,1009.4
2018-12-05T08:11:08.924Z,1009.36
2018-12-05T08:12:08.941Z,1009.33
2018-12-05T08:13:08.957Z,1009.31
2018-12-05T08:14:08.976Z,1009.27
2018-12-05T08:15:08.993Z,1009.25
2018-12-05T08:16:09.009Z,1009.22
2018-12-05T08:17:09.030Z,1009.23
2018-12-05T08:18:09.042Z,1009.17
2018-12-05T08:19:09.060Z,1009.19
2018-12-05T08:20:09.076Z,1009.19
2018-12-05T08:21:09.103Z,1009.17
2018-12-05T08:22:09.108Z,1009.19
2018-12-05T08:23:09.129Z,1009.18
2018-12-05T08:24:09.144Z,1009.16
2018-12-05T08:25:09.160Z,1009.17
2018-12-05T08:26:09.180Z,1009.12
2018-12-05T08:27:09.193Z,1009.12
2018-12-05T08:28:09.211Z,1009.15
2018-12-05T08:29:09.227Z,1009.15
2018-12-05T08:30:09.246Z,1009.15
2018-12-05T08:31:09.263Z,1009.17
2018-12-05T08:32:09.278Z,1009.15
2018-12-05T08:33:09.294Z,1009.15
2018-12-05T08:34:09.311Z,1009.17
2018-12-05T08:35:09.329Z,1009.2
2018-12-05T08:36:09.350Z,1009.23
2018-12-05T08:37:09.363Z,1009.21
2018-12-05T08:38:09.379Z,1009.15
2018-12-05T08:39:09.395Z,1009.2
2018-12-05T08:40:09.414Z,1009.16
2018-12-05T08:41:09.433Z,1009.16
2018-12-05T08:42:09.446Z,1009.16
2018-12-05T08:43:09.464Z,1009.15
2018-12-05T08:44:09.481Z,1009.14
2018-12-05T08:45:09.498Z,1009.17
2018-12-05T08:46:09.518Z,1009.14
2018-12-05T08:47:09.533Z,1009.12
2018-12-05T08:48:09.553Z,1009.15
2018-12-05T08:49:09.565Z,1009.13
2018-12-05T08:50:09.583Z,1009.14
2018-12-05T08:51:09.600Z,1009.09
2018-12-05T08:52:09.619Z,1009.08
2018-12-05T08:53:09.632Z,1009.06
2018-12-05T08:54:09.649Z,1009.05
2018-12-05T08:55:09.670Z,1009.07
2018-12-05T08:56:09.684Z,1009.08
2018-12-05T08:57:09.701Z,1009.07
2018-12-05T08:58:09.720Z,1009.04
2018-12-05T08:59:09.735Z,1009.04
2018-12-05T09:00:09.753Z,1009.04
2018-12-05T09:01:09.774Z,1009.02
2018-12-05T09:02:09.787Z,1009.03
2018-12-05T09:03:09.804Z,1009.02
2018-12-05T09:04:09.822Z,1009.03
2018-12-05T09:05:09.840Z,1009.02
2018-12-05T09:06:09.854Z,1009
2018-12-05T09:07:09.877Z,1008.99
2018-12-05T09:08:09.889Z,1008.99
2018-12-05T09:09:09.907Z,1009.03
2018-12-05T09:10:09.929Z,1009.01
2018-12-05T09:11:09.940Z,1009.06
2018-12-05T09:12:09.957Z,1009.04
2018-12-05T09:13:09.983Z,1009.09
2018-12-05T09:14:09.992Z,1009.06
2018-12-05T09:15:10.013Z,1009.1
2018-12-05T09:16:10.029Z,1009.06
2018-12-05T09:17:10.042Z,1009.04
2018-12-05T09:18:10.061Z,1008.98
2018-12-05T09:19:10.077Z,1008.99
2018-12-05T09:20:10.094Z,1008.99
2018-12-05T09:21:10.110Z,1008.99
2018-12-05T09:22:10.129Z,1008.96
2018-12-05T09:23:10.147Z,1008.97
2018-12-05T09:24:10.163Z,1008.97
2018-12-05T09:25:10.183Z,1008.89
2018-12-05T09:26:10.197Z,1008.92
2018-12-05T09:27:10.217Z,1008.86
2018-12-05T09:28:10.232Z,1008.84
2018-12-05T09:29:10.253Z,1008.85
2018-12-05T09:30:10.269Z,1008.86
2018-12-05T09:31:10.287Z,1008.85
2018-12-05T09:32:10.298Z,1008.83
2018-12-05T09:33:10.317Z,1008.82
2018-12-05T09:34:10.338Z,1008.83
2018-12-05T09:35:10.351Z,1008.85
2018-12-05T09:36:10.368Z,1008.85
2018-12-05T09:37:10.389Z,1008.87
2018-12-05T09:38:10.401Z,1008.88
2018-12-05T09:39:10.419Z,1008.88
2018-12-05T09:40:10.441Z,1008.91
2018-12-05T09:41:10.456Z,1008.9
2018-12-05T09:42:10.474Z,1008.86
2018-12-05T09:43:10.491Z,1008.83
2018-12-05T09:44:10.505Z,1008.8
2018-12-05T09:45:10.525Z,1008.8
2018-12-05T09:46:10.538Z,1008.78
2018-12-05T09:47:15.810Z,1008.73
2018-12-05T09:48:10.572Z,1008.69
2018-12-05T09:49:10.593Z,1008.66
2018-12-05T09:50:10.605Z,1008.65
2018-12-05T09:51:10.633Z,1008.64
2018-12-05T09:52:10.640Z,1008.66
2018-12-05T09:53:10.657Z,1008.64
2018-12-05T09:54:10.675Z,1008.66
2018-12-05T09:55:10.693Z,1008.63
2018-12-05T09:56:10.710Z,1008.73
2018-12-05T09:57:10.732Z,1008.73
2018-12-05T09:58:10.744Z,1008.74
2018-12-05T09:59:10.762Z,1008.75
2018-12-05T10:00:10.781Z,1008.77
2018-12-05T10:01:10.795Z,1008.79
2018-12-05T10:02:10.813Z,1008.79
2018-12-05T10:03:10.831Z,1008.75
2018-12-05T10:04:10.849Z,1008.68
2018-12-05T10:05:10.869Z,1008.69
2018-12-05T10:06:10.882Z,1008.66
2018-12-05T10:07:10.899Z,1008.68
2018-12-05T10:08:10.926Z,1008.69
2018-12-05T10:09:10.933Z,1008.63
2018-12-05T10:10:10.952Z,1008.64
2018-12-05T10:11:10.971Z,1008.6
2018-12-05T10:12:10.985Z,1008.6
2018-12-05T10:13:11.004Z,1008.61
2018-12-05T10:14:11.024Z,1008.57
2018-12-05T10:15:11.038Z,1008.62
2018-12-05T10:16:11.054Z,1008.61
2018-12-05T10:17:11.072Z,1008.53
2018-12-05T10:18:11.091Z,1008.52
2018-12-05T10:19:11.107Z,1008.48
2018-12-05T10:20:11.124Z,1008.5
2018-12-05T10:21:11.153Z,1008.52
2018-12-05T10:22:11.158Z,1008.51
2018-12-05T10:23:11.179Z,1008.53
2018-12-05T10:24:11.194Z,1008.49
2018-12-05T10:25:11.216Z,1008.49
2018-12-05T10:26:11.228Z,1008.48
2018-12-05T10:27:11.247Z,1008.48
2018-12-05T10:28:11.266Z,1008.5
2018-12-05T10:29:11.281Z,1008.48
2018-12-05T10:30:11.302Z,1008.48
2018-12-05T10:31:11.318Z,1008.45
2018-12-05T10:32:11.336Z,1008.41
2018-12-05T10:33:11.353Z,1008.4
2018-12-05T10:34:11.366Z,1008.36
2018-12-05T10:35:11.385Z,1008.39
2018-12-05T10:36:11.408Z,1008.34
2018-12-05T10:37:11.418Z,1008.34
2018-12-05T10:38:11.441Z,1008.4
2018-12-05T10:39:11.455Z,1008.4
2018-12-05T10:40:11.475Z,1008.32
2018-12-05T10:41:11.487Z,1008.31
2018-12-05T10:42:11.510Z,1008.28
2018-12-05T10:43:11.524Z,1008.29
2018-12-05T10:44:11.543Z,1008.23
2018-12-05T10:45:11.562Z,1008.22
2018-12-05T10:46:11.574Z,1008.19
2018-12-05T10:47:11.592Z,1008.13
2018-12-05T10:48:11.608Z,1008.12
2018-12-05T10:49:11.630Z,1008.15
2018-12-05T10:50:11.644Z,1008.08
2018-12-05T10:51:11.661Z,1008.15
2018-12-05T10:52:11.679Z,1008.1
2018-12-05T10:53:11.697Z,1008.11
2018-12-05T10:54:11.717Z,1008.1
2018-12-05T10:55:11.734Z,1008.05
2018-12-05T10:56:11.752Z,1008.03
2018-12-05T10:57:11.765Z,1007.99
2018-12-05T10:58:11.786Z,1007.99
2018-12-05T10:59:11.800Z,1007.98
2018-12-05T11:00:11.816Z,1007.98
2018-12-05T11:01:11.835Z,1007.94
2018-12-05T11:02:11.853Z,1007.95
2018-12-05T11:03:11.868Z,1007.94
2018-12-05T11:04:11.890Z,1007.98
2018-12-05T11:05:11.907Z,1007.93
2018-12-05T11:06:11.949Z,1007.94
2018-12-05T11:07:11.938Z,1007.99
2018-12-05T11:08:11.957Z,1007.96
2018-12-05T11:09:11.974Z,1007.94
2018-12-05T11:10:11.989Z,1007.94
2018-12-05T11:11:12.007Z,1007.91
2018-12-05T11:12:12.029Z,1007.89
2018-12-05T11:13:12.043Z,1007.89
2018-12-05T11:14:12.059Z,1007.88
2018-12-05T11:15:12.084Z,1007.87
2018-12-05T11:16:12.098Z,1007.9
2018-12-05T11:17:12.116Z,1007.89
2018-12-05T11:18:12.130Z,1007.9
2018-12-05T11:19:12.148Z,1007.84
2018-12-05T11:20:12.170Z,1007.86
2018-12-05T11:21:12.185Z,1007.84
2018-12-05T11:22:12.207Z,1007.84
2018-12-05T11:23:12.216Z,1007.82
2018-12-05T11:24:12.234Z,1007.82
2018-12-05T11:25:12.251Z,1007.83
2018-12-05T11:26:12.278Z,1007.81
2018-12-05T11:27:12.287Z,1007.84
2018-12-05T11:28:12.306Z,1007.82
2018-12-05T11:29:12.322Z,1007.91
2018-12-05T11:30:12.340Z,1007.88
2018-12-05T11:31:12.357Z,1007.86
2018-12-05T11:32:12.375Z,1007.86
2018-12-05T11:33:12.393Z,1007.87
2018-12-05T11:34:12.413Z,1007.88
2018-12-05T11:35:12.429Z,1007.83
2018-12-05T11:36:12.446Z,1007.77
2018-12-05T11:37:12.467Z,1007.76
2018-12-05T11:38:12.481Z,1007.74
2018-12-05T11:39:12.500Z,1007.79
2018-12-05T11:40:12.515Z,1007.75
2018-12-05T11:41:12.537Z,1007.76
2018-12-05T11:42:12.551Z,1007.78
2018-12-05T11:43:12.567Z,1007.75
2018-12-05T11:44:12.589Z,1007.74
2018-12-05T11:45:12.602Z,1007.72
2018-12-05T11:46:12.619Z,1007.69
2018-12-05T11:47:12.636Z,1007.73
2018-12-05T11:48:12.657Z,1007.7
2018-12-05T11:49:12.674Z,1007.67
2018-12-05T11:50:12.690Z,1007.65
2018-12-05T11:51:12.711Z,1007.68
2018-12-05T11:52:12.725Z,1007.63
2018-12-05T11:53:12.743Z,1007.61
2018-12-05T11:54:12.760Z,1007.63
2018-12-05T11:55:12.778Z,1007.55
2018-12-05T11:56:12.795Z,1007.59
2018-12-05T11:57:12.821Z,1007.58
2018-12-05T11:58:12.830Z,1007.55
2018-12-05T11:59:12.849Z,1007.51
2018-12-05T12:00:12.866Z,1007.56
2018-12-05T12:01:12.883Z,1007.55
2018-12-05T12:02:12.901Z,1007.5
2018-12-05T12:03:12.923Z,1007.5
2018-12-05T12:04:12.939Z,1007.47
2018-12-05T12:05:12.954Z,1007.46
2018-12-05T12:06:12.970Z,1007.46
2018-12-05T12:07:12.989Z,1007.48
2018-12-05T12:08:13.009Z,1007.41